Portada
METAR-TAF:

METAR-TAF

Aeroports :

Damasc, Síria

latitud: 33-25N, longitud: 036-31E, altitud: 608 m

Observació

L'informe es va fer fa 33 minuts, a les 07:00 UTC
Vent calma
Temperatura 2°C
Humitat 75%
Pressió 1024 hPa
Visibilitat 10 km o més
sense núvols per sota de 1500 mi sense presència de cumulonimbus.

METAR: OSDI 200700Z 00000KT CAVOK 02/M02 Q1024

Hora: 09:33 (07:33 UTC)

Pronòstic

L'informe es va fer fa 9 hores i 3 minuts, a les 22:30 UTC
Pronòstic vàlid del 20 a les 00 UTC al 21 a les 06 UTC
Vent 3 kt amb direcció variable
Visibilitat: 6000 m
Probabilitat 30% :
Temporalment
l' 20 a les 00 UTC al 20 a les 06 UTC
Visibilitat: 0200 m
boira
Evolucionant progressivament
l' 20 a les 07 UTC al 20 a les 09 UTC
Vent 10 kt del Est/Sud-Est
Visibilitat 10 km o més
Escasses núvols a una alçada de 3000 ft

TAF: OSDI 192230Z 2000/2106 VRB03KT 6000 PROB30 TEMPO 2000/2006 0200 FG BECMG 2007/2009 12010KT 9999 FEW030

Observacions i pronòstics meteorològics de més de 4000 aeroports (METAR i TAF).

Les estacions disponibles són els punts grocs i vermells al mapa.

Posi el ratolí al punt desitjat per veure el nom de l'estació.

Feu clic per veure les observacions i els pronòstics meteorològics.

Per canviar el mapa: feu clic els botons verds amb una creu de color negre per apropar; al botó verd amb un guió per allunyar la imatge; o en les fletxes verdes per a mapes adjacents.


METAR-TAF: